Time;durP1;ratioP1;P1;durP2;ratioP2;P2;SDS_P1;SDS_P2;PMS_P1;PMS_P2;Temp;Humidity;BMP_temperature;BMP_pressure;BME280_temperature;BME280_humidity;BME280_pressure;Samples;Min_cycle;Max_cycle;Signal;HPM_P1;HPM_P2
2022/07/02 00:00:36;;;;;;;;;;;;;;;;;;4977287;28;8773;-85
2022/07/02 00:03:04;;;;;;;;;;;;;;;;;;4977286;28;8417;-85
2022/07/02 00:05:31;;;;;;;;;;;;;;;;;;4976972;28;8294;-85
2022/07/02 00:07:57;;;;;;;;;;;;;;;;;;4977494;28;8333;-85
2022/07/02 00:10:23;;;;;;;;;;;;;;;;;;4976958;28;8292;-85
2022/07/02 00:12:49;;;;;;;;;;;;;;;;;;4976730;28;8350;-85
2022/07/02 00:15:15;;;;;;;;;;;;;;;;;;4976846;28;8305;-85
2022/07/02 00:17:41;;;;;;;;;;;;;;;;;;4977458;28;8407;-85
2022/07/02 00:20:07;;;;;;;;;;;;;;;;;;4976686;28;8549;-85
2022/07/02 00:22:32;;;;;;;;;;;;;;;;;;4976559;28;8356;-85
2022/07/02 00:24:58;;;;;;;;;;;;;;;;;;4977085;28;7127;-85
2022/07/02 00:27:27;;;;;;;;;;;;;;;;;;4976794;28;8360;-85
2022/07/02 00:29:56;;;;;;;;;;;;;;;;;;4976946;28;8445;-85
2022/07/02 00:32:22;;;;;;;;;;;;;;;;;;4976693;28;7065;-85
2022/07/02 00:34:50;;;;;;;;;;;;;;;;;;4976325;28;7180;-85
2022/07/02 00:37:16;;;;;;;;;;;;;;;;;;4976234;28;8311;-85
2022/07/02 00:39:42;;;;;;;;;;;;;;;;;;4976597;28;8312;-85
2022/07/02 00:42:08;;;;;;;;;;;;;;;;;;4976455;28;7256;-85
2022/07/02 00:44:34;;;;;;;;;;;;;;;;;;4976309;28;7042;-85
2022/07/02 00:47:04;;;;;;;;;;;;;;;;;;4976934;28;8477;-85
2022/07/02 00:49:34;;;;;;;;;;;;;;;;;;4976104;28;7172;-85
2022/07/02 00:52:00;;;;;;;;;;;;;;;;;;4976126;28;7134;-85
2022/07/02 00:54:26;;;;;;;;;;;;;;;;;;4976428;28;7154;-86
2022/07/02 00:56:52;;;;;;;;;;;;;;;;;;4976304;28;8506;-86
2022/07/02 00:59:19;;;;;;;;;;;;;;;;;;4976199;28;8444;-85
2022/07/02 01:01:45;;;;;;;;;;;;;;;;;;4975877;28;7134;-85
2022/07/02 01:04:14;;;;;;;;;;;;;;;;;;4975994;28;8650;-85
2022/07/02 01:06:41;;;;;;;;;;;;;;;;;;4976826;28;7309;-85
2022/07/02 01:11:55;;;;;;;;;;;;;;;;;;4976992;28;6800;-84
2022/07/02 01:14:23;;;;;;;;;;;;;;;;;;4976254;28;7581;-85
2022/07/02 01:16:48;;;;;;;;;;;;;;;;;;4975993;28;7069;-85
2022/07/02 01:19:17;;;;;;;;;;;;;;;;;;4975697;28;8878;-85
2022/07/02 01:22:01;;;;;;;;;;;;;;;;;;4976050;28;8417;-85
2022/07/02 01:24:26;;;;;;;;;;;;;;;;;;4975809;28;8425;-85
2022/07/02 01:26:52;;;;;;;;;;;;;;;;;;4975455;28;7115;-85
2022/07/02 01:29:17;;;;;;;;;;;;;;;;;;4975555;28;7154;-85
2022/07/02 01:31:43;;;;;;;;;;;;;;;;;;4975284;28;7047;-85
2022/07/02 01:34:08;;;;;;;;;;;;;;;;;;4975332;28;7041;-85
2022/07/02 01:36:33;;;;;;;;;;;;;;;;;;4975707;28;8412;-85
2022/07/02 01:38:59;;;;;;;;;;;;;;;;;;4975007;28;8319;-85
2022/07/02 01:41:40;;;;;;;;;;;;;;;;;;4975597;28;7140;-85
2022/07/02 01:44:05;;;;;;;;;;;;;;;;;;4976007;28;8458;-85
2022/07/02 01:46:31;;;;;;;;;;;;;;;;;;4975320;28;7031;-85
2022/07/02 01:48:57;;;;;;;;;;;;;;;;;;4975047;28;8403;-85
2022/07/02 01:51:22;;;;;;;;;;;;;;;;;;4975306;28;8412;-86
2022/07/02 01:53:48;;;;;;;;;;;;;;;;;;4975070;28;7091;-85
2022/07/02 01:56:14;;;;;;;;;;;;;;;;;;4976612;28;6828;-85
2022/07/02 01:58:39;;;;;;;;;;;;;;;;;;4976207;28;7802;-85
2022/07/02 02:01:05;;;;;;;;;;;;;;;;;;4975345;28;8450;-85
2022/07/02 02:03:30;;;;;;;;;;;;;;;;;;4974930;28;8328;-85
2022/07/02 02:05:56;;;;;;;;;;;;;;;;;;4975460;28;7155;-85
2022/07/02 02:08:21;;;;;;;;;;;;;;;;;;4975104;28;7313;-85
2022/07/02 02:10:47;;;;;;;;;;;;;;;;;;4974800;28;8731;-85
2022/07/02 02:13:12;;;;;;;;;;;;;;;;;;4975238;28;7145;-85
2022/07/02 02:15:38;;;;;;;;;;;;;;;;;;4974750;28;8729;-85
2022/07/02 02:18:04;;;;;;;;;;;;;;;;;;4974659;28;8760;-85
2022/07/02 02:20:29;;;;;;;;;;;;;;;;;;4975243;28;8564;-85
2022/07/02 02:22:55;;;;;;;;;;;;;;;;;;4975415;28;7048;-85
2022/07/02 02:25:20;;;;;;;;;;;;;;;;;;4975131;28;7151;-85
2022/07/02 02:27:46;;;;;;;;;;;;;;;;;;4974971;28;8367;-85
2022/07/02 02:30:12;;;;;;;;;;;;;;;;;;4975061;28;8819;-85
2022/07/02 02:32:38;;;;;;;;;;;;;;;;;;4974574;28;8400;-86
2022/07/02 02:35:05;;;;;;;;;;;;;;;;;;4974522;28;7044;-86
2022/07/02 02:37:30;;;;;;;;;;;;;;;;;;4975442;28;9293;-86
2022/07/02 02:39:55;;;;;;;;;;;;;;;;;;4979087;28;8345;-85
2022/07/02 02:42:21;;;;;;;;;;;;;;;;;;4978770;28;7474;-86
2022/07/02 02:44:47;;;;;;;;;;;;;;;;;;4978750;28;8384;-85
2022/07/02 02:47:13;;;;;;;;;;;;;;;;;;4978991;28;7013;-85
2022/07/02 02:49:38;;;;;;;;;;;;;;;;;;4978459;28;7266;-85
2022/07/02 02:52:04;;;;;;;;;;;;;;;;;;4978900;28;8431;-85
2022/07/02 02:54:30;;;;;;;;;;;;;;;;;;4978697;28;8696;-86
2022/07/02 02:56:56;;;;;;;;;;;;;;;;;;4978445;28;8300;-86
2022/07/02 02:59:21;;;;;;;;;;;;;;;;;;4978436;28;7393;-85
2022/07/02 03:01:47;;;;;;;;;;;;;;;;;;4978401;28;7259;-85
2022/07/02 03:04:13;;;;;;;;;;;;;;;;;;4978169;28;8513;-85
2022/07/02 03:06:38;;;;;;;;;;;;;;;;;;4978901;28;6825;-85
2022/07/02 03:09:04;;;;;;;;;;;;;;;;;;4978722;28;7228;-85
2022/07/02 03:11:31;;;;;;;;;;;;;;;;;;4978044;28;8428;-85
2022/07/02 03:13:58;;;;;;;;;;;;;;;;;;4979173;28;7246;-85
2022/07/02 03:16:23;;;;;;;;;;;;;;;;;;4978189;28;7144;-84
2022/07/02 03:18:49;;;;;;;;;;;;;;;;;;4978011;28;8403;-85
2022/07/02 03:21:14;;;;;;;;;;;;;;;;;;4977772;28;7039;-85
2022/07/02 03:23:40;;;;;;;;;;;;;;;;;;4977924;28;8432;-85
2022/07/02 03:26:05;;;;;;;;;;;;;;;;;;4977916;28;8555;-86
2022/07/02 03:28:31;;;;;;;;;;;;;;;;;;4978124;28;8379;-85
2022/07/02 03:30:57;;;;;;;;;;;;;;;;;;4977865;28;8594;-85
2022/07/02 03:33:22;;;;;;;;;;;;;;;;;;4977433;28;8408;-85
2022/07/02 03:35:48;;;;;;;;;;;;;;;;;;4977617;28;7051;-86
2022/07/02 03:38:13;;;;;;;;;;;;;;;;;;4977444;28;8493;-85
2022/07/02 03:40:39;;;;;;;;;;;;;;;;;;4977316;28;8260;-85
2022/07/02 03:43:04;;;;;;;;;;;;;;;;;;4978618;28;7023;-85
2022/07/02 03:45:29;;;;;;;;;;;;;;;;;;4977848;28;7031;-85
2022/07/02 03:47:55;;;;;;;;;;;;;;;;;;4977754;28;8494;-86
2022/07/02 03:50:20;;;;;;;;;;;;;;;;;;4977103;28;8481;-85
2022/07/02 03:52:46;;;;;;;;;;;;;;;;;;4977279;28;8398;-86
2022/07/02 03:55:11;;;;;;;;;;;;;;;;;;4977210;28;8296;-85
2022/07/02 03:57:37;;;;;;;;;;;;;;;;;;4977148;28;7233;-85
2022/07/02 04:00:04;;;;;;;;;;;;;;;;;;4977173;28;8408;-85
2022/07/02 04:02:29;;;;;;;;;;;;;;;;;;4977661;28;7054;-85
2022/07/02 04:04:55;;;;;;;;;;;;;;;;;;4977283;28;8423;-85
2022/07/02 04:07:20;;;;;;;;;;;;;;;;;;4977017;28;8304;-85
2022/07/02 04:09:46;;;;;;;;;;;;;;;;;;4977639;28;8268;-86
2022/07/02 04:12:12;;;;;;;;;;;;;;;;;;4977426;28;8294;-85
2022/07/02 04:14:37;;;;;;;;;;;;;;;;;;4976970;28;7049;-85
2022/07/02 04:17:03;;;;;;;;;;;;;;;;;;4976771;28;8378;-86
2022/07/02 04:19:29;;;;;;;;;;;;;;;;;;4976771;28;8270;-85
2022/07/02 04:21:54;;;;;;;;;;;;;;;;;;4976749;28;7392;-86
2022/07/02 04:24:20;;;;;;;;;;;;;;;;;;4976532;28;8545;-85
2022/07/02 04:26:46;;;;;;;;;;;;;;;;;;4976853;28;8330;-85
2022/07/02 04:29:12;;;;;;;;;;;;;;;;;;4976631;28;7229;-85
2022/07/02 04:31:37;;;;;;;;;;;;;;;;;;4976770;28;7063;-86
2022/07/02 04:34:03;;;;;;;;;;;;;;;;;;4976555;28;7300;-85
2022/07/02 04:36:28;;;;;;;;;;;;;;;;;;4976910;28;7192;-85
2022/07/02 04:38:54;;;;;;;;;;;;;;;;;;4976091;28;8437;-85
2022/07/02 04:41:19;;;;;;;;;;;;;;;;;;4976856;28;7017;-86
2022/07/02 04:43:45;;;;;;;;;;;;;;;;;;4976618;28;8405;-85
2022/07/02 04:46:10;;;;;;;;;;;;;;;;;;4976801;28;7012;-85
2022/07/02 04:48:36;;;;;;;;;;;;;;;;;;4976677;28;8648;-85
2022/07/02 04:51:02;;;;;;;;;;;;;;;;;;4976865;28;7101;-85
2022/07/02 04:53:27;;;;;;;;;;;;;;;;;;4976679;28;6992;-85
2022/07/02 04:55:53;;;;;;;;;;;;;;;;;;4975994;28;8961;-85
2022/07/02 04:58:18;;;;;;;;;;;;;;;;;;4976266;28;8447;-86
2022/07/02 05:00:43;;;;;;;;;;;;;;;;;;4975470;28;7010;-85
2022/07/02 05:03:09;;;;;;;;;;;;;;;;;;4975780;28;8386;-85
2022/07/02 05:05:34;;;;;;;;;;;;;;;;;;4976280;28;7148;-85
2022/07/02 05:08:00;;;;;;;;;;;;;;;;;;4975561;28;8320;-84
2022/07/02 05:10:25;;;;;;;;;;;;;;;;;;4975068;28;7016;-84
2022/07/02 05:12:51;;;;;;;;;;;;;;;;;;4975539;28;8340;-85
2022/07/02 05:15:16;;;;;;;;;;;;;;;;;;4975414;28;8414;-85
2022/07/02 05:17:42;;;;;;;;;;;;;;;;;;4975017;28;7038;-85
2022/07/02 05:20:08;;;;;;;;;;;;;;;;;;4975533;28;7345;-84
2022/07/02 05:22:33;;;;;;;;;;;;;;;;;;4975386;28;8843;-86
2022/07/02 05:24:59;;;;;;;;;;;;;;;;;;4972087;28;7153;-86
2022/07/02 05:27:24;;;;;;;;;;;;;;;;;;4965006;28;8716;-85
2022/07/02 05:29:50;;;;;;;;;;;;;;;;;;4971568;28;7168;-87
2022/07/02 05:32:16;;;;;;;;;;;;;;;;;;4971988;28;6979;-86
2022/07/02 05:34:41;;;;;;;;;;;;;;;;;;4956090;28;6976;-87
2022/07/02 05:37:07;;;;;;;;;;;;;;;;;;4955993;28;8551;-87
2022/07/02 05:39:32;;;;;;;;;;;;;;;;;;4955942;28;8685;-87
2022/07/02 05:41:57;;;;;;;;;;;;;;;;;;4956066;28;8697;-86
2022/07/02 05:44:23;;;;;;;;;;;;;;;;;;4969572;28;7322;-85
2022/07/02 05:46:48;;;;;;;;;;;;;;;;;;4979259;28;7349;-87
2022/07/02 05:49:14;;;;;;;;;;;;;;;;;;4975095;28;8304;-89
2022/07/02 05:51:39;;;;;;;;;;;;;;;;;;4975209;28;8634;-87
2022/07/02 05:54:05;;;;;;;;;;;;;;;;;;4975052;28;7017;-86
2022/07/02 05:56:30;;;;;;;;;;;;;;;;;;4975349;28;8347;-86
2022/07/02 05:58:56;;;;;;;;;;;;;;;;;;4975350;28;8464;-87
2022/07/02 06:01:21;;;;;;;;;;;;;;;;;;4975885;28;7570;-86
2022/07/02 06:03:47;;;;;;;;;;;;;;;;;;4974982;28;8452;-87
2022/07/02 06:08:56;;;;;;;;;;;;;;;;;;4976059;28;6960;-86
2022/07/02 06:11:22;;;;;;;;;;;;;;;;;;4975194;28;8414;-86
2022/07/02 06:13:47;;;;;;;;;;;;;;;;;;4974413;28;8399;-86
2022/07/02 06:16:13;;;;;;;;;;;;;;;;;;4975045;28;8372;-86
2022/07/02 06:18:39;;;;;;;;;;;;;;;;;;4975167;28;8316;-86
2022/07/02 06:21:04;;;;;;;;;;;;;;;;;;4974550;28;8306;-86
2022/07/02 06:23:30;;;;;;;;;;;;;;;;;;4975176;28;7037;-86
2022/07/02 06:25:55;;;;;;;;;;;;;;;;;;4974811;28;7063;-87
2022/07/02 06:28:21;;;;;;;;;;;;;;;;;;4975786;28;8690;-86
2022/07/02 06:30:46;;;;;;;;;;;;;;;;;;4974833;28;7016;-87
2022/07/02 06:33:12;;;;;;;;;;;;;;;;;;4974778;28;8809;-86
2022/07/02 06:35:40;;;;;;;;;;;;;;;;;;4974657;28;7116;-87
2022/07/02 06:38:06;;;;;;;;;;;;;;;;;;4974658;28;7184;-87
2022/07/02 06:40:32;;;;;;;;;;;;;;;;;;4974490;28;7368;-87
2022/07/02 06:42:58;;;;;;;;;;;;;;;;;;4974579;28;8409;-86
2022/07/02 06:45:24;;;;;;;;;;;;;;;;;;4974398;28;7035;-86
2022/07/02 06:47:49;;;;;;;;;;;;;;;;;;4974572;28;7151;-86
2022/07/02 06:50:18;;;;;;;;;;;;;;;;;;4974482;28;7158;-87
2022/07/02 06:52:45;;;;;;;;;;;;;;;;;;4974508;28;7240;-86
2022/07/02 06:55:12;;;;;;;;;;;;;;;;;;4975179;28;8787;-87
2022/07/02 06:57:37;;;;;;;;;;;;;;;;;;4974324;28;8821;-87
2022/07/02 07:00:04;;;;;;;;;;;;;;;;;;4973971;28;7047;-88
2022/07/02 07:02:30;;;;;;;;;;;;;;;;;;4974401;28;7174;-87
2022/07/02 07:04:55;;;;;;;;;;;;;;;;;;4974288;28;8479;-87
2022/07/02 07:07:27;;;;;;;;;;;;;;;;;;4974668;28;8334;-86
2022/07/02 07:09:53;;;;;;;;;;;;;;;;;;4974253;28;8976;-86
2022/07/02 07:12:19;;;;;;;;;;;;;;;;;;4974448;28;7274;-86
2022/07/02 07:14:45;;;;;;;;;;;;;;;;;;4974182;28;8499;-86
2022/07/02 07:17:11;;;;;;;;;;;;;;;;;;4973840;28;8511;-87
2022/07/02 07:19:36;;;;;;;;;;;;;;;;;;4974020;28;8489;-86
2022/07/02 07:22:02;;;;;;;;;;;;;;;;;;4974041;28;8823;-87
2022/07/02 07:24:27;;;;;;;;;;;;;;;;;;4975214;28;8329;-87
2022/07/02 07:26:53;;;;;;;;;;;;;;;;;;4977774;28;7849;-86
2022/07/02 07:29:18;;;;;;;;;;;;;;;;;;4978047;28;7059;-87
2022/07/02 07:31:44;;;;;;;;;;;;;;;;;;4977701;28;9291;-87
2022/07/02 07:34:09;;;;;;;;;;;;;;;;;;4977379;28;8500;-86
2022/07/02 07:36:35;;;;;;;;;;;;;;;;;;4977401;28;7161;-87
2022/07/02 07:39:02;;;;;;;;;;;;;;;;;;4977789;28;7036;-87
2022/07/02 07:41:28;;;;;;;;;;;;;;;;;;4977218;28;7075;-87
2022/07/02 07:43:53;;;;;;;;;;;;;;;;;;4977685;28;7182;-87
2022/07/02 07:46:20;;;;;;;;;;;;;;;;;;4977237;28;8790;-87
2022/07/02 07:48:46;;;;;;;;;;;;;;;;;;4977183;28;8350;-84
2022/07/02 07:51:12;;;;;;;;;;;;;;;;;;4977821;28;8545;-87
2022/07/02 07:53:38;;;;;;;;;;;;;;;;;;4977158;28;7217;-88
2022/07/02 07:56:07;;;;;;;;;;;;;;;;;;4976899;28;8459;-88
2022/07/02 07:58:34;;;;;;;;;;;;;;;;;;4977215;28;8319;-88
2022/07/02 08:01:01;;;;;;;;;;;;;;;;;;4977105;28;7082;-88
2022/07/02 08:03:26;;;;;;;;;;;;;;;;;;4977020;28;8398;-87
2022/07/02 08:05:54;;;;;;;;;;;;;;;;;;4977400;28;8361;-87
2022/07/02 08:08:22;;;;;;;;;;;;;;;;;;4976684;28;8453;-88
2022/07/02 08:10:49;;;;;;;;;;;;;;;;;;4976607;28;8519;-88
2022/07/02 08:13:15;;;;;;;;;;;;;;;;;;4976912;28;7134;-87
2022/07/02 08:15:40;;;;;;;;;;;;;;;;;;4976255;28;8741;-88
2022/07/02 08:18:06;;;;;;;;;;;;;;;;;;4976617;28;8463;-87
2022/07/02 08:20:32;;;;;;;;;;;;;;;;;;4976832;28;8575;-85
2022/07/02 08:22:58;;;;;;;;;;;;;;;;;;4976863;28;8318;-87
2022/07/02 08:25:24;;;;;;;;;;;;;;;;;;4976512;28;8760;-86
2022/07/02 08:27:50;;;;;;;;;;;;;;;;;;4976682;28;8578;-85
2022/07/02 08:30:15;;;;;;;;;;;;;;;;;;4976452;28;8296;-86
2022/07/02 08:32:41;;;;;;;;;;;;;;;;;;4976559;28;7079;-87
2022/07/02 08:35:07;;;;;;;;;;;;;;;;;;4975866;28;8547;-86
2022/07/02 08:37:32;;;;;;;;;;;;;;;;;;4976038;28;8650;-86
2022/07/02 08:39:57;;;;;;;;;;;;;;;;;;4976085;28;8511;-87
2022/07/02 08:42:25;;;;;;;;;;;;;;;;;;4976367;28;8615;-87
2022/07/02 08:44:56;;;;;;;;;;;;;;;;;;4976209;28;7228;-89
2022/07/02 08:47:23;;;;;;;;;;;;;;;;;;4976962;28;7173;-88
2022/07/02 08:49:50;;;;;;;;;;;;;;;;;;4977821;28;8848;-87
2022/07/02 08:52:17;;;;;;;;;;;;;;;;;;4976491;28;8444;-88
2022/07/02 08:54:44;;;;;;;;;;;;;;;;;;4976275;28;8314;-89
2022/07/02 08:57:11;;;;;;;;;;;;;;;;;;4976213;28;8342;-87
2022/07/02 08:59:37;;;;;;;;;;;;;;;;;;4975820;28;8651;-87
2022/07/02 09:02:03;;;;;;;;;;;;;;;;;;4976176;28;8262;-87
2022/07/02 09:04:30;;;;;;;;;;;;;;;;;;4975939;28;8715;-87
2022/07/02 09:06:59;;;;;;;;;;;;;;;;;;4971646;28;8620;-87
2022/07/02 09:09:25;;;;;;;;;;;;;;;;;;4974610;28;8347;-86
2022/07/02 09:11:51;;;;;;;;;;;;;;;;;;4975153;28;8441;-88
2022/07/02 09:14:17;;;;;;;;;;;;;;;;;;4974433;28;8440;-89
2022/07/02 09:16:43;;;;;;;;;;;;;;;;;;4974836;28;6853;-88
2022/07/02 09:19:08;;;;;;;;;;;;;;;;;;4974997;28;8529;-88
2022/07/02 09:21:48;;;;;;;;;;;;;;;;;;4973701;28;8339;-89
2022/07/02 09:24:14;;;;;;;;;;;;;;;;;;4974231;28;8407;-88
2022/07/02 09:26:40;;;;;;;;;;;;;;;;;;4974278;28;9275;-89
2022/07/02 09:29:05;;;;;;;;;;;;;;;;;;4991714;28;6878;-80
2022/07/02 09:31:32;;;;;;;;;;;;;;;;;;4974496;28;8734;-83
2022/07/02 09:33:58;;;;;;;;;;;;;;;;;;4973817;28;8358;-88
2022/07/02 09:36:24;;;;;;;;;;;;;;;;;;4975605;28;7454;-88
2022/07/02 09:38:52;;;;;;;;;;;;;;;;;;4975622;28;7207;-88
2022/07/02 09:41:23;;;;;;;;;;;;;;;;;;4975929;28;8488;-88
2022/07/02 09:43:58;;;;;;;;;;;;;;;;;;4975062;28;8672;-89
2022/07/02 09:46:24;;;;;;;;;;;;;;;;;;4975428;28;8948;-90
2022/07/02 09:48:50;;;;;;;;;;;;;;;;;;4974890;28;8420;-90
2022/07/02 09:51:16;;;;;;;;;;;;;;;;;;4976344;28;8460;-91
2022/07/02 09:53:49;;;;;;;;;;;;;;;;;;4973021;28;7216;-91
2022/07/02 09:56:14;;;;;;;;;;;;;;;;;;4974333;28;8407;-90
2022/07/02 09:58:40;;;;;;;;;;;;;;;;;;4974282;28;8449;-89
2022/07/02 10:01:05;;;;;;;;;;;;;;;;;;4974008;28;8737;-87
2022/07/02 10:03:30;;;;;;;;;;;;;;;;;;4974083;28;8443;-90
2022/07/02 10:05:56;;;;;;;;;;;;;;;;;;4973548;28;8816;-90
2022/07/02 10:08:22;;;;;;;;;;;;;;;;;;4974077;28;8427;-88
2022/07/02 10:10:48;;;;;;;;;;;;;;;;;;4974672;28;8476;-88
2022/07/02 10:13:15;;;;;;;;;;;;;;;;;;4973865;28;7657;-86
2022/07/02 10:16:00;;;;;;;;;;;;;;;;;;4973863;28;8524;-86
2022/07/02 10:18:25;;;;;;;;;;;;;;;;;;4974004;28;8564;-86
2022/07/02 10:20:52;;;;;;;;;;;;;;;;;;4974142;28;7342;-86
2022/07/02 10:23:20;;;;;;;;;;;;;;;;;;4973268;28;8327;-87
2022/07/02 10:25:47;;;;;;;;;;;;;;;;;;4973777;28;8540;-85
2022/07/02 10:28:13;;;;;;;;;;;;;;;;;;4974465;28;8668;-87
2022/07/02 10:30:38;;;;;;;;;;;;;;;;;;4975194;28;8500;-87
2022/07/02 10:33:23;;;;;;;;;;;;;;;;;;4974860;28;7125;-87
2022/07/02 10:35:49;;;;;;;;;;;;;;;;;;4974951;28;8501;-86
2022/07/02 10:38:15;;;;;;;;;;;;;;;;;;4974576;28;7197;-86
2022/07/02 10:40:48;;;;;;;;;;;;;;;;;;4974788;28;8459;-86
2022/07/02 10:43:18;;;;;;;;;;;;;;;;;;4974564;28;8493;-85
2022/07/02 10:45:44;;;;;;;;;;;;;;;;;;4975222;28;7218;-85
2022/07/02 10:48:11;;;;;;;;;;;;;;;;;;4974601;28;8657;-86
2022/07/02 10:50:40;;;;;;;;;;;;;;;;;;4974569;28;7223;-86
2022/07/02 10:53:14;;;;;;;;;;;;;;;;;;4975039;28;8589;-84
2022/07/02 10:55:55;;;;;;;;;;;;;;;;;;4974331;28;8897;-85
2022/07/02 10:58:21;;;;;;;;;;;;;;;;;;4974670;28;9112;-86
2022/07/02 11:00:48;;;;;;;;;;;;;;;;;;4977637;28;7132;-86
2022/07/02 11:03:18;;;;;;;;;;;;;;;;;;4978097;28;9337;-86
2022/07/02 11:06:01;;;;;;;;;;;;;;;;;;4978525;28;8852;-86
2022/07/02 11:08:46;;;;;;;;;;;;;;;;;;4977944;28;7229;-86
2022/07/02 11:11:19;;;;;;;;;;;;;;;;;;4978279;28;8486;-86
2022/07/02 11:13:47;;;;;;;;;;;;;;;;;;4977946;28;8582;-86
2022/07/02 11:16:22;;;;;;;;;;;;;;;;;;4977960;28;8894;-86
2022/07/02 11:18:49;;;;;;;;;;;;;;;;;;4978031;28;8362;-87
2022/07/02 11:21:16;;;;;;;;;;;;;;;;;;4978203;28;9232;-87
2022/07/02 11:23:41;;;;;;;;;;;;;;;;;;4977742;28;8561;-87
2022/07/02 11:26:07;;;;;;;;;;;;;;;;;;4977907;28;8392;-86
2022/07/02 11:28:34;;;;;;;;;;;;;;;;;;4977915;28;8906;-86
2022/07/02 11:31:00;;;;;;;;;;;;;;;;;;4977752;28;8805;-87
2022/07/02 11:33:26;;;;;;;;;;;;;;;;;;4977845;28;8928;-86
2022/07/02 11:35:52;;;;;;;;;;;;;;;;;;4977614;28;8471;-87
2022/07/02 11:38:18;;;;;;;;;;;;;;;;;;4977698;28;8537;-86
2022/07/02 11:40:44;;;;;;;;;;;;;;;;;;4977802;28;7251;-87
2022/07/02 11:43:17;;;;;;;;;;;;;;;;;;4977318;28;7168;-86
2022/07/02 11:45:43;;;;;;;;;;;;;;;;;;4977514;28;7412;-86
2022/07/02 11:48:19;;;;;;;;;;;;;;;;;;4977651;28;7111;-86
2022/07/02 11:50:55;;;;;;;;;;;;;;;;;;4977470;28;9242;-86
2022/07/02 11:53:20;;;;;;;;;;;;;;;;;;4977380;28;9150;-85
2022/07/02 11:55:46;;;;;;;;;;;;;;;;;;4977348;28;8750;-86
2022/07/02 11:58:12;;;;;;;;;;;;;;;;;;4977728;28;8500;-86
2022/07/02 12:00:37;;;;;;;;;;;;;;;;;;4977193;28;8557;-86
2022/07/02 12:03:13;;;;;;;;;;;;;;;;;;4977540;28;8487;-87
2022/07/02 12:05:50;;;;;;;;;;;;;;;;;;4977073;28;8535;-85
2022/07/02 12:08:16;;;;;;;;;;;;;;;;;;4977179;28;9197;-86
2022/07/02 12:10:41;;;;;;;;;;;;;;;;;;4976644;28;8472;-87
2022/07/02 12:13:08;;;;;;;;;;;;;;;;;;4977285;28;9390;-86
2022/07/02 12:15:40;;;;;;;;;;;;;;;;;;4976944;28;7423;-86
2022/07/02 12:18:14;;;;;;;;;;;;;;;;;;4977063;28;8786;-87
2022/07/02 12:20:40;;;;;;;;;;;;;;;;;;4977195;28;8482;-86
2022/07/02 12:23:05;;;;;;;;;;;;;;;;;;4977134;28;8569;-85
2022/07/02 12:25:43;;;;;;;;;;;;;;;;;;4977325;28;8445;-87
2022/07/02 12:29:53;;;;;;;;;;;;;;;;;;4976075;28;7234;-86
2022/07/02 12:30:55;;;;;;;;;;;;;;;;;;4976771;28;7287;-85
2022/07/02 12:33:31;;;;;;;;;;;;;;;;;;4976207;28;8473;-85
2022/07/02 12:36:00;;;;;;;;;;;;;;;;;;4976416;28;8733;-86
2022/07/02 12:38:27;;;;;;;;;;;;;;;;;;4976171;28;7295;-86
2022/07/02 12:40:59;;;;;;;;;;;;;;;;;;4976380;28;7197;-86
2022/07/02 12:43:25;;;;;;;;;;;;;;;;;;4976250;28;7222;-86
2022/07/02 12:45:51;;;;;;;;;;;;;;;;;;4976061;28;8785;-86
2022/07/02 12:48:19;;;;;;;;;;;;;;;;;;4975759;28;8487;-87
2022/07/02 12:50:51;;;;;;;;;;;;;;;;;;4975813;28;8946;-87
2022/07/02 12:53:18;;;;;;;;;;;;;;;;;;4976227;28;9041;-86
2022/07/02 12:55:51;;;;;;;;;;;;;;;;;;4976066;28;8767;-90
2022/07/02 12:58:16;;;;;;;;;;;;;;;;;;4963689;28;8495;-86
2022/07/02 13:00:44;;;;;;;;;;;;;;;;;;4975428;28;8817;-81
2022/07/02 13:03:12;;;;;;;;;;;;;;;;;;4979402;28;8033;-81
2022/07/02 13:05:39;;;;;;;;;;;;;;;;;;4979868;28;6903;-81
2022/07/02 13:08:06;;;;;;;;;;;;;;;;;;4980972;28;8827;-81
2022/07/02 13:10:32;;;;;;;;;;;;;;;;;;4965330;28;8492;-82
2022/07/02 13:12:57;;;;;;;;;;;;;;;;;;4971777;28;7447;-82
2022/07/02 13:15:23;;;;;;;;;;;;;;;;;;4992307;28;7526;-82
2022/07/02 13:17:50;;;;;;;;;;;;;;;;;;4976097;28;8651;-83
2022/07/02 13:20:15;;;;;;;;;;;;;;;;;;4992108;28;8804;-82
2022/07/02 13:22:42;;;;;;;;;;;;;;;;;;4991316;28;8480;-82
2022/07/02 13:25:09;;;;;;;;;;;;;;;;;;4991882;28;8626;-85
2022/07/02 13:27:35;;;;;;;;;;;;;;;;;;4992014;28;8514;-87
2022/07/02 13:30:01;;;;;;;;;;;;;;;;;;4991895;28;9264;-86
2022/07/02 13:32:27;;;;;;;;;;;;;;;;;;4991850;28;8566;-86
2022/07/02 13:34:53;;;;;;;;;;;;;;;;;;4988529;28;8508;-89
2022/07/02 13:37:19;;;;;;;;;;;;;;;;;;4986601;28;8439;-86
2022/07/02 13:39:45;;;;;;;;;;;;;;;;;;4973135;28;7399;-84
2022/07/02 13:42:11;;;;;;;;;;;;;;;;;;4956161;28;8478;-86
2022/07/02 13:44:37;;;;;;;;;;;;;;;;;;4955926;28;7354;-86
2022/07/02 13:47:02;;;;;;;;;;;;;;;;;;4956473;28;8311;-86
2022/07/02 13:49:28;;;;;;;;;;;;;;;;;;4955676;28;8459;-86
2022/07/02 13:51:53;;;;;;;;;;;;;;;;;;4956194;28;7214;-88
2022/07/02 13:54:19;;;;;;;;;;;;;;;;;;4955827;28;8748;-86
2022/07/02 13:56:45;;;;;;;;;;;;;;;;;;4955959;28;7087;-86
2022/07/02 13:59:10;;;;;;;;;;;;;;;;;;4966372;28;8924;-85
2022/07/02 14:01:36;;;;;;;;;;;;;;;;;;4974985;28;8424;-87
2022/07/02 14:04:02;;;;;;;;;;;;;;;;;;4987497;28;7975;-86
2022/07/02 14:06:28;;;;;;;;;;;;;;;;;;4965600;28;7110;-87
2022/07/02 14:08:54;;;;;;;;;;;;;;;;;;4971744;28;8416;-86
2022/07/02 14:11:20;;;;;;;;;;;;;;;;;;4956707;28;8793;-89
2022/07/02 14:13:46;;;;;;;;;;;;;;;;;;4974115;28;7607;-90
2022/07/02 14:16:12;;;;;;;;;;;;;;;;;;4975955;28;8674;-88
2022/07/02 14:18:37;;;;;;;;;;;;;;;;;;4980649;28;8467;-88
2022/07/02 14:21:04;;;;;;;;;;;;;;;;;;4991039;28;8544;-90
2022/07/02 14:23:30;;;;;;;;;;;;;;;;;;4991055;28;8475;-88
2022/07/02 14:25:56;;;;;;;;;;;;;;;;;;4991507;28;7182;-87
2022/07/02 14:28:22;;;;;;;;;;;;;;;;;;4991027;28;8496;-88
2022/07/02 14:30:48;;;;;;;;;;;;;;;;;;4990761;28;8763;-87
2022/07/02 14:33:15;;;;;;;;;;;;;;;;;;4991222;28;7224;-88
2022/07/02 14:35:41;;;;;;;;;;;;;;;;;;4995297;28;8782;-87
2022/07/02 14:38:06;;;;;;;;;;;;;;;;;;4994925;28;7128;-85
2022/07/02 14:40:32;;;;;;;;;;;;;;;;;;4994496;28;8503;-89
2022/07/02 14:42:57;;;;;;;;;;;;;;;;;;4994784;28;8434;-87
2022/07/02 14:45:23;;;;;;;;;;;;;;;;;;4994679;28;8440;-89
2022/07/02 14:47:49;;;;;;;;;;;;;;;;;;4993047;28;8460;-86
2022/07/02 14:50:14;;;;;;;;;;;;;;;;;;4989000;28;8826;-87
2022/07/02 14:52:40;;;;;;;;;;;;;;;;;;4984653;28;8736;-85
2022/07/02 14:55:06;;;;;;;;;;;;;;;;;;4979013;28;8492;-88
2022/07/02 14:57:31;;;;;;;;;;;;;;;;;;4984252;28;8729;-87
2022/07/02 14:59:57;;;;;;;;;;;;;;;;;;4977900;28;8517;-88
2022/07/02 15:02:22;;;;;;;;;;;;;;;;;;4961787;28;9357;-87
2022/07/02 15:04:48;;;;;;;;;;;;;;;;;;4975921;28;7195;-83
2022/07/02 15:07:13;;;;;;;;;;;;;;;;;;4968480;28;8487;-91
2022/07/02 15:09:39;;;;;;;;;;;;;;;;;;5005207;28;8542;-84
2022/07/02 15:12:05;;;;;;;;;;;;;;;;;;4975582;28;7200;-87
2022/07/02 15:17:15;;;;;;;;;;;;;;;;;;4966140;28;6838;-87
2022/07/02 15:19:40;;;;;;;;;;;;;;;;;;4982997;28;8510;-85
2022/07/02 15:22:07;;;;;;;;;;;;;;;;;;4971162;28;8440;-83
2022/07/02 15:24:46;;;;;;;;;;;;;;;;;;4979427;28;7107;-89
2022/07/02 15:27:13;;;;;;;;;;;;;;;;;;4975028;28;7217;-88
2022/07/02 15:29:40;;;;;;;;;;;;;;;;;;4962391;28;8652;-88
2022/07/02 15:32:11;;;;;;;;;;;;;;;;;;4994371;28;8794;-88
2022/07/02 15:34:38;;;;;;;;;;;;;;;;;;4982187;28;8436;-88
2022/07/02 15:37:06;;;;;;;;;;;;;;;;;;4958559;28;8481;-88
2022/07/02 15:39:31;;;;;;;;;;;;;;;;;;4976961;28;8451;-87
2022/07/02 15:41:58;;;;;;;;;;;;;;;;;;4976887;28;8468;-87
2022/07/02 15:44:27;;;;;;;;;;;;;;;;;;4977236;28;8462;-87
2022/07/02 15:46:54;;;;;;;;;;;;;;;;;;4976946;28;8407;-86
2022/07/02 15:49:21;;;;;;;;;;;;;;;;;;4977386;28;8813;-85
2022/07/02 15:51:50;;;;;;;;;;;;;;;;;;4976338;28;8511;-86
2022/07/02 15:54:36;;;;;;;;;;;;;;;;;;4977533;28;7044;-87
2022/07/02 15:57:07;;;;;;;;;;;;;;;;;;4973703;28;8875;-89
2022/07/02 15:59:35;;;;;;;;;;;;;;;;;;4957713;28;8542;-88
2022/07/02 16:02:00;;;;;;;;;;;;;;;;;;4957802;28;8519;-89
2022/07/02 16:04:37;;;;;;;;;;;;;;;;;;4962983;28;9216;-84
2022/07/02 16:07:04;;;;;;;;;;;;;;;;;;4993426;28;8609;-90
2022/07/02 16:09:30;;;;;;;;;;;;;;;;;;4993131;28;8585;-89
2022/07/02 16:11:56;;;;;;;;;;;;;;;;;;4992636;28;8509;-90
2022/07/02 16:14:22;;;;;;;;;;;;;;;;;;4992888;28;7295;-90
2022/07/02 16:16:48;;;;;;;;;;;;;;;;;;4987372;28;7336;-90
2022/07/02 16:19:15;;;;;;;;;;;;;;;;;;4976655;28;8732;-90
2022/07/02 16:21:42;;;;;;;;;;;;;;;;;;4968451;28;8803;-91
2022/07/02 16:24:08;;;;;;;;;;;;;;;;;;4973393;28;7458;-90
2022/07/02 16:26:33;;;;;;;;;;;;;;;;;;4977255;28;8465;-89
2022/07/02 16:28:58;;;;;;;;;;;;;;;;;;4976177;28;8730;-86
2022/07/02 16:31:26;;;;;;;;;;;;;;;;;;4976619;28;8780;-83
2022/07/02 16:34:14;;;;;;;;;;;;;;;;;;4975539;28;8858;-88
2022/07/02 16:36:43;;;;;;;;;;;;;;;;;;4973545;28;9631;-87
2022/07/02 16:39:10;;;;;;;;;;;;;;;;;;4976415;28;8623;-80
2022/07/02 16:41:41;;;;;;;;;;;;;;;;;;4976570;28;8492;-86
2022/07/02 16:44:09;;;;;;;;;;;;;;;;;;4976729;28;8602;-86
2022/07/02 16:46:41;;;;;;;;;;;;;;;;;;4976097;28;8516;-88
2022/07/02 16:49:09;;;;;;;;;;;;;;;;;;4976150;28;7114;-88
2022/07/02 16:51:38;;;;;;;;;;;;;;;;;;4976325;28;8457;-87
2022/07/02 16:54:06;;;;;;;;;;;;;;;;;;4976037;28;8368;-86
2022/07/02 16:56:33;;;;;;;;;;;;;;;;;;4976220;28;7227;-86
2022/07/02 16:59:01;;;;;;;;;;;;;;;;;;4975809;28;8484;-88
2022/07/02 17:01:27;;;;;;;;;;;;;;;;;;4960529;28;8426;-87
2022/07/02 17:03:54;;;;;;;;;;;;;;;;;;4975844;28;8457;-88
2022/07/02 17:06:20;;;;;;;;;;;;;;;;;;4975737;28;9588;-88
2022/07/02 17:08:45;;;;;;;;;;;;;;;;;;4978219;28;8581;-87